Terminal Aerodrome Forecast
Issued by NWS

Home | Current Version | Previous Version | Text Only | Print | Product List | Glossary On
Versions: 1 2 3 4 5 6 7 8 9 10 11 12 13 14 15 16 17 18 19 20 21 22 23 24 25 26 27
718
FTAK31 PAJN 242335
TAFAYA
TAF
PAYA 242335Z 2500/2524 11010G20KT 5SM -RA BR FEW007 SCT012 OVC025
      WS020/13035KT
      TEMPO 2500/2504 14015G30KT 2SM -RA BR SCT006 OVC012
     FM250900 14010G20KT 6SM -RA SCT010 BKN035 OVC050
     FM251200 09015G25KT 2SM -RA BR BKN008 OVC015 WS020/15050KT
     FM252100 14015KT 4SM -RA SCT015 BKN025 OVC040 WS020/15050KT
      AMD LTD TO CLD VIS AND WIND 2501/2509=

USA.gov is the U.S. government's official web portal to all federal, state and local government web resources and services.